9CO7 weather

Beaugh Airport
Kersey, Colorado, United States

Public forecast

Using degrees Fahrenheit for public forecast. Weather courtesy of forecast.io.

METAR (pilot weather report)

Closest report is Greeley–Weld County Airport, 6.4 nm (11.9 km) NNW. Retrieved 2019/08/24 16:56 UTC (17 minutes ago):

KGXY 241656Z AUTO 07006KT 10SM 22/14 A3003 RMK AO2 SLP135 T02170139 $

TAF (pilot weather forecast)

Closest forecast is Denver International Airport, 29.1 nm (53.9 km) S. Retrieved 2019/08/24 12:22 UTC (5 hours ago):

TAF KDEN 241120Z 2412/2518 16008KT P6SM FEW120 FM241300 31008KT P6SM FEW200 FM241700 02010KT P6SM FEW100 FM250000 12008KT P6SM SCT100 FM250400 22011KT P6SM SKC FM251500 29013KT P6SM FEW120